Holualoa, Hawaii
Current Conditions -  °F | °C
As of 12:53 PM on Tuesday 25 Nov 2014 (Local Time) from PHKO Reporting Station
Scattered Clouds Scattered Clouds  
Wind Chill: 85°   Ceiling: Unl
Heat Index: 88°   Visibility: 10mi
Dew Point: 67°   Wind: 18mph
Humidity: 55%   Direction: 330°NNW
Pressure: 29.91"   Gusts: NA
Location:  19.61°N, 155.94°W
Report Text: PHKO 252253Z 33016KT 10SM SCT050 29/19 A2991 RMK AO2 SLP127 T02940194
Loading
Personal Weather Stations






























Interactive Weather Map New forecast layout! Learn more

10-Day Weather Forecast

Advertisements
Track Severe Weather on mobile